Time;durP1;ratioP1;P1;durP2;ratioP2;P2;SDS_P1;SDS_P2;PMS_P1;PMS_P2;Temp;Humidity;BMP_temperature;BMP_pressure;BME280_temperature;BME280_humidity;BME280_pressure;Samples;Min_cycle;Max_cycle;Signal;HPM_P1;HPM_P2
2021/07/07 00:02:37;;;;;;;3.67;2.40;;;22.70;91.20;;;;;;5032780;28;20044;-69
2021/07/07 00:05:41;;;;;;;6.75;2.25;;;22.70;91.40;;;;;;5032424;28;20146;-69
2021/07/07 00:08:46;;;;;;;4.22;2.00;;;22.70;91.70;;;;;;5032444;28;20052;-68
2021/07/07 00:11:49;;;;;;;3.38;1.80;;;22.70;91.40;;;;;;5032010;28;20048;-69
2021/07/07 00:14:53;;;;;;;7.85;2.10;;;22.70;91.40;;;;;;5032174;28;20045;-69
2021/07/07 00:18:02;;;;;;;5.22;2.67;;;22.70;91.40;;;;;;5032337;28;20502;-68
2021/07/07 00:21:08;;;;;;;2.80;1.85;;;22.80;91.50;;;;;;5030326;28;20044;-68
2021/07/07 00:24:12;;;;;;;4.05;1.88;;;22.80;91.40;;;;;;5021831;28;20062;-68
2021/07/07 00:27:16;;;;;;;10.00;2.08;;;22.90;91.50;;;;;;5018268;28;20114;-68
2021/07/07 00:30:21;;;;;;;3.08;2.08;;;22.80;91.50;;;;;;5029317;28;20096;-68
2021/07/07 00:33:25;;;;;;;5.88;2.22;;;22.80;91.70;;;;;;5023660;28;20515;-68
2021/07/07 00:36:30;;;;;;;2.75;2.08;;;22.80;91.80;;;;;;5032399;28;20045;-68
2021/07/07 00:39:34;;;;;;;5.53;2.05;;;22.60;92.00;;;;;;5032283;28;20065;-68
2021/07/07 00:42:39;;;;;;;4.00;2.03;;;22.50;92.50;;;;;;5023973;28;20040;-68
2021/07/07 00:45:44;;;;;;;3.95;1.90;;;22.50;92.90;;;;;;5031460;28;20065;-68
2021/07/07 00:48:48;;;;;;;3.13;1.80;;;22.40;93.10;;;;;;5012077;28;20044;-68
2021/07/07 00:51:52;;;;;;;2.75;1.85;;;22.30;93.40;;;;;;5025843;28;20045;-68
2021/07/07 00:54:57;;;;;;;5.72;2.03;;;22.40;93.60;;;;;;5031584;28;20048;-68
2021/07/07 00:58:01;;;;;;;4.38;1.95;;;22.40;93.60;;;;;;5030200;28;20049;-69
2021/07/07 01:01:07;;;;;;;3.45;1.88;;;22.30;93.70;;;;;;5021031;28;20053;-69
2021/07/07 01:04:12;;;;;;;4.68;2.15;;;22.30;94.00;;;;;;5017472;28;20057;-68
2021/07/07 01:07:16;;;;;;;5.22;1.98;;;22.30;94.20;;;;;;5027569;28;20049;-69
2021/07/07 01:10:21;;;;;;;5.57;2.20;;;22.30;94.30;;;;;;5029871;28;20395;-69
2021/07/07 01:13:25;;;;;;;4.15;2.10;;;22.20;94.50;;;;;;5030778;28;20048;-69
2021/07/07 01:16:30;;;;;;;6.78;2.10;;;22.20;94.70;;;;;;5031341;28;20044;-69
2021/07/07 01:19:34;;;;;;;6.40;2.40;;;22.10;95.10;;;;;;5031137;28;20052;-68
2021/07/07 01:22:39;;;;;;;3.08;2.03;;;22.00;95.20;;;;;;5031083;28;20060;-69
2021/07/07 01:25:44;;;;;;;4.53;2.20;;;22.00;95.30;;;;;;5031086;28;20048;-68
2021/07/07 01:28:48;;;;;;;4.70;1.77;;;22.10;95.40;;;;;;5030900;28;20053;-68
2021/07/07 01:31:52;;;;;;;5.85;1.92;;;22.00;95.50;;;;;;5030421;28;20044;-68
2021/07/07 01:34:57;;;;;;;4.47;1.80;;;22.00;95.60;;;;;;5030789;28;20037;-69
2021/07/07 01:38:01;;;;;;;5.30;1.95;;;22.10;95.60;;;;;;5030903;28;20211;-69
2021/07/07 01:41:06;;;;;;;5.15;2.17;;;22.10;95.50;;;;;;5030410;28;20053;-69
2021/07/07 01:44:10;;;;;;;7.90;2.20;;;22.10;95.60;;;;;;5030843;28;20052;-68
2021/07/07 01:47:14;;;;;;;4.72;2.40;;;22.10;95.70;;;;;;5030744;28;20324;-68
2021/07/07 01:50:19;;;;;;;4.00;2.03;;;22.10;95.90;;;;;;5030375;28;20076;-68
2021/07/07 01:53:24;;;;;;;3.28;2.17;;;22.10;96.00;;;;;;5030749;28;20049;-69
2021/07/07 01:56:27;;;;;;;2.28;2.05;;;22.10;96.10;;;;;;5030728;28;20044;-68
2021/07/07 01:59:31;;;;;;;5.47;1.90;;;22.00;96.30;;;;;;5030656;28;20048;-69
2021/07/07 02:02:35;;;;;;;3.67;2.20;;;22.00;96.60;;;;;;5030527;28;20399;-68
2021/07/07 02:05:39;;;;;;;3.03;2.05;;;22.00;96.70;;;;;;5030469;28;20049;-69
2021/07/07 02:08:43;;;;;;;6.38;2.05;;;21.90;96.90;;;;;;5029458;28;20052;-69
2021/07/07 02:11:47;;;;;;;4.50;2.05;;;21.80;97.20;;;;;;5030122;28;20045;-69
2021/07/07 02:14:52;;;;;;;4.97;2.20;;;21.70;97.40;;;;;;5010471;28;20108;-69
2021/07/07 02:17:59;;;;;;;5.80;2.20;;;21.60;97.80;;;;;;5010793;28;20053;-69
2021/07/07 02:21:03;;;;;;;6.05;2.10;;;21.60;98.00;;;;;;5010160;28;20048;-68
2021/07/07 02:24:07;;;;;;;4.30;2.50;;;21.50;98.40;;;;;;5013642;28;20060;-69
2021/07/07 02:27:12;;;;;;;3.97;2.53;;;21.50;98.60;;;;;;5014435;28;20053;-69
2021/07/07 02:30:19;;;;;;;4.45;2.20;;;21.40;98.70;;;;;;5014360;28;20476;-68
2021/07/07 02:33:25;;;;;;;7.68;2.40;;;21.40;98.80;;;;;;5014468;28;20396;-68
2021/07/07 02:36:30;;;;;;;6.60;3.42;;;21.30;98.90;;;;;;5014443;28;20073;-69
2021/07/07 02:39:35;;;;;;;6.03;3.20;;;21.30;99.20;;;;;;5030202;28;20241;-68
2021/07/07 02:42:39;;;;;;;3.33;2.42;;;21.30;99.80;;;;;;5019130;28;20045;-68
2021/07/07 02:45:43;;;;;;;3.30;1.98;;;21.30;99.90;;;;;;5034147;28;20050;-68
2021/07/07 02:48:47;;;;;;;11.75;2.83;;;21.20;99.90;;;;;;5014554;28;20408;-68
2021/07/07 02:51:51;;;;;;;4.28;2.30;;;21.20;99.90;;;;;;5012651;28;20526;-68
2021/07/07 02:54:56;;;;;;;2.50;2.10;;;21.20;99.90;;;;;;5014073;28;20041;-68
2021/07/07 02:58:02;;;;;;;5.80;2.30;;;21.20;99.90;;;;;;5034116;28;20392;-69
2021/07/07 03:01:07;;;;;;;2.90;2.08;;;21.30;99.90;;;;;;5033275;28;20052;-68
2021/07/07 03:04:11;;;;;;;5.57;2.10;;;21.30;99.90;;;;;;5033747;28;20403;-69
2021/07/07 03:07:15;;;;;;;5.53;2.80;;;21.30;99.90;;;;;;5033581;28;20049;-68
2021/07/07 03:10:19;;;;;;;7.53;2.53;;;21.30;99.90;;;;;;5033279;28;20050;-68
2021/07/07 03:13:25;;;;;;;6.68;2.30;;;21.20;99.90;;;;;;5033337;28;20040;-68
2021/07/07 03:16:30;;;;;;;6.38;3.08;;;21.20;99.90;;;;;;5033520;28;20049;-68
2021/07/07 03:19:34;;;;;;;5.95;2.47;;;21.20;99.90;;;;;;5033452;28;20433;-69
2021/07/07 03:22:38;;;;;;;3.13;2.17;;;21.10;99.90;;;;;;5033347;28;20044;-69
2021/07/07 03:25:42;;;;;;;6.43;2.85;;;21.20;99.90;;;;;;5033527;28;20048;-68
2021/07/07 03:28:48;;;;;;;4.40;2.38;;;21.10;99.90;;;;;;5033479;28;20045;-68
2021/07/07 03:31:52;;;;;;;8.68;2.58;;;20.70;99.90;;;;;;5032973;28;20052;-68
2021/07/07 03:34:56;;;;;;;4.10;2.47;;;20.50;99.90;;;;;;5032382;28;20049;-69
2021/07/07 03:38:00;;;;;;;10.85;3.75;;;20.40;99.90;;;;;;5033080;28;20058;-69
2021/07/07 03:41:04;;;;;;;6.13;3.28;;;20.40;99.90;;;;;;5032645;28;20053;-68
2021/07/07 03:44:08;;;;;;;9.00;2.80;;;20.40;99.90;;;;;;5033046;28;20512;-68
2021/07/07 03:47:12;;;;;;;4.75;2.92;;;20.30;99.90;;;;;;5032737;28;20056;-69
2021/07/07 03:50:17;;;;;;;4.70;2.90;;;20.30;99.90;;;;;;5032620;28;20060;-68
2021/07/07 03:53:21;;;;;;;9.25;3.42;;;20.30;99.90;;;;;;5033000;28;20056;-68
2021/07/07 03:56:25;;;;;;;5.57;3.15;;;20.30;99.90;;;;;;5043411;28;20052;-68
2021/07/07 03:59:30;;;;;;;10.18;3.25;;;20.30;99.90;;;;;;5032709;28;20057;-69
2021/07/07 04:02:34;;;;;;;5.28;3.13;;;20.30;99.90;;;;;;5032896;28;20530;-68
2021/07/07 04:05:38;;;;;;;4.20;2.90;;;20.30;99.90;;;;;;5032695;28;20060;-69
2021/07/07 04:08:42;;;;;;;7.78;3.47;;;20.40;99.90;;;;;;5032456;28;20045;-68
2021/07/07 04:11:47;;;;;;;7.60;2.90;;;20.40;99.90;;;;;;5031865;28;20040;-69
2021/07/07 04:14:51;;;;;;;6.35;3.33;;;20.40;99.90;;;;;;5032409;28;20053;-69
2021/07/07 04:17:54;;;;;;;4.93;3.13;;;20.50;99.90;;;;;;5032232;28;20052;-68
2021/07/07 04:20:58;;;;;;;7.50;3.30;;;20.50;99.90;;;;;;5031966;28;20045;-69
2021/07/07 04:24:03;;;;;;;4.88;3.20;;;20.50;99.90;;;;;;5032586;28;20048;-69
2021/07/07 04:27:07;;;;;;;8.05;3.42;;;20.60;99.90;;;;;;5032044;28;20037;-69
2021/07/07 04:30:15;;;;;;;9.85;3.67;;;20.80;99.90;;;;;;5031700;28;20539;-69
2021/07/07 04:33:19;;;;;;;7.15;3.20;;;20.80;99.90;;;;;;5031979;28;20044;-68
2021/07/07 04:36:24;;;;;;;7.82;2.80;;;21.50;99.90;;;;;;5031987;28;20041;-68
2021/07/07 04:39:28;;;;;;;5.47;2.92;;;22.90;99.90;;;;;;5032079;28;20056;-68
2021/07/07 04:42:32;;;;;;;5.72;2.90;;;24.10;99.90;;;;;;5031983;28;20509;-68
2021/07/07 04:45:36;;;;;;;4.50;2.80;;;25.30;99.90;;;;;;5030794;28;20049;-68
2021/07/07 04:48:40;;;;;;;6.57;3.08;;;26.20;98.40;;;;;;5012005;28;20053;-68
2021/07/07 04:51:43;;;;;;;6.30;2.55;;;26.70;97.10;;;;;;5011706;28;20040;-68
2021/07/07 04:54:48;;;;;;;13.48;3.30;;;27.20;95.90;;;;;;5011860;28;20049;-68
2021/07/07 04:57:54;;;;;;;6.45;2.80;;;27.70;95.40;;;;;;5018320;28;20049;-68
2021/07/07 05:01:00;;;;;;;12.27;2.80;;;28.30;94.10;;;;;;5029364;28;20049;-68
2021/07/07 05:04:05;;;;;;;5.13;2.75;;;28.70;93.30;;;;;;5030472;28;20040;-68
2021/07/07 05:07:10;;;;;;;4.90;2.53;;;29.00;92.20;;;;;;5031072;28;20048;-68
2021/07/07 05:10:15;;;;;;;4.32;2.58;;;28.20;92.50;;;;;;5030619;28;20037;-68
2021/07/07 05:13:21;;;;;;;9.13;2.85;;;27.80;93.50;;;;;;5030797;28;20400;-68
2021/07/07 05:16:25;;;;;;;4.05;2.70;;;28.20;93.10;;;;;;5025994;28;20041;-67
2021/07/07 05:19:30;;;;;;;6.75;3.08;;;28.30;92.70;;;;;;5028456;28;20035;-68
2021/07/07 05:22:34;;;;;;;5.82;2.65;;;27.90;93.00;;;;;;5029865;28;20048;-68
2021/07/07 05:25:39;;;;;;;8.77;2.60;;;27.50;93.20;;;;;;5031053;28;20056;-68
2021/07/07 05:28:43;;;;;;;3.13;2.20;;;27.80;93.30;;;;;;5028899;28;20399;-68
2021/07/07 05:31:49;;;;;;;4.38;2.53;;;28.40;92.70;;;;;;5038857;28;20044;-68
2021/07/07 05:34:55;;;;;;;5.97;2.78;;;27.60;92.70;;;;;;5029010;28;20379;-67
2021/07/07 05:37:59;;;;;;;9.25;3.10;;;27.50;92.30;;;;;;5029126;28;20388;-67
2021/07/07 05:41:04;;;;;;;5.60;2.40;;;26.60;94.60;;;;;;5038805;28;20124;-68
2021/07/07 05:44:08;;;;;;;6.25;2.50;;;25.10;95.40;;;;;;5030005;28;20040;-68
2021/07/07 05:47:13;;;;;;;5.63;2.40;;;26.20;95.30;;;;;;5031167;28;20047;-68
2021/07/07 05:50:19;;;;;;;3.38;2.75;;;27.10;93.50;;;;;;5030768;28;20415;-68
2021/07/07 05:53:24;;;;;;;4.55;2.30;;;26.50;94.70;;;;;;5030470;28;20036;-67
2021/07/07 05:56:28;;;;;;;6.40;2.72;;;27.20;93.60;;;;;;5031375;28;20107;-67
2021/07/07 05:59:32;;;;;;;4.45;2.60;;;26.50;93.70;;;;;;5030222;28;20590;-67
2021/07/07 06:02:37;;;;;;;3.95;2.22;;;25.90;94.30;;;;;;5022083;28;20487;-68
2021/07/07 06:05:41;;;;;;;4.85;2.50;;;26.30;94.60;;;;;;5030874;28;20052;-68
2021/07/07 06:08:45;;;;;;;3.72;2.15;;;27.00;93.50;;;;;;5031404;28;20041;-68
2021/07/07 06:11:50;;;;;;;5.70;2.50;;;27.10;93.30;;;;;;5030719;28;20040;-68
2021/07/07 06:14:54;;;;;;;5.70;2.42;;;28.60;91.80;;;;;;5019794;28;20045;-68
2021/07/07 06:17:59;;;;;;;5.45;2.30;;;28.80;91.50;;;;;;5024819;28;20380;-68
2021/07/07 06:21:03;;;;;;;5.40;2.28;;;29.50;90.90;;;;;;5030546;28;20047;-68
2021/07/07 06:24:07;;;;;;;7.32;2.47;;;29.70;89.30;;;;;;5028219;28;20036;-68
2021/07/07 06:27:11;;;;;;;8.63;2.42;;;29.00;90.00;;;;;;5025758;28;20483;-68
2021/07/07 06:30:18;;;;;;;4.38;2.17;;;28.70;90.40;;;;;;5023692;28;20040;-68
2021/07/07 06:33:23;;;;;;;8.55;2.75;;;28.80;90.40;;;;;;5031373;28;20040;-68
2021/07/07 06:36:27;;;;;;;3.63;2.22;;;29.00;89.50;;;;;;5014484;28;20053;-67
2021/07/07 06:39:31;;;;;;;6.82;2.55;;;29.80;88.20;;;;;;5023925;28;20507;-67
2021/07/07 06:42:36;;;;;;;3.17;2.10;;;29.10;88.20;;;;;;5030635;28;20044;-68
2021/07/07 06:45:41;;;;;;;5.88;2.33;;;29.90;87.30;;;;;;5018611;28;20124;-68
2021/07/07 06:48:45;;;;;;;6.00;2.28;;;28.90;89.00;;;;;;5029308;28;20117;-68
2021/07/07 06:51:49;;;;;;;5.45;1.80;;;30.40;87.60;;;;;;5015794;28;20045;-68
2021/07/07 06:54:54;;;;;;;8.32;2.47;;;31.70;85.60;;;;;;5015283;28;20471;-68
2021/07/07 06:58:00;;;;;;;7.32;2.20;;;31.40;84.80;;;;;;5030607;28;20048;-68
2021/07/07 07:01:04;;;;;;;5.93;2.30;;;32.20;83.10;;;;;;5020054;28;20515;-68
2021/07/07 07:04:08;;;;;;;5.75;1.70;;;32.10;82.70;;;;;;5014935;28;20045;-68
2021/07/07 07:07:12;;;;;;;6.40;2.40;;;32.50;81.70;;;;;;5030238;28;20056;-69
2021/07/07 07:10:16;;;;;;;4.65;2.45;;;32.90;79.40;;;;;;5030155;28;20360;-68
2021/07/07 07:13:20;;;;;;;4.68;2.15;;;33.10;79.00;;;;;;5033101;28;20040;-68
2021/07/07 07:16:24;;;;;;;6.50;2.00;;;33.40;78.60;;;;;;5032956;28;20052;-68
2021/07/07 07:19:29;;;;;;;13.50;2.40;;;33.50;78.20;;;;;;5030579;28;20044;-68
2021/07/07 07:22:34;;;;;;;11.57;2.42;;;33.20;79.00;;;;;;5014623;28;20053;-67
2021/07/07 07:25:39;;;;;;;9.38;2.80;;;32.00;78.60;;;;;;5014377;28;20061;-68
2021/07/07 07:28:46;;;;;;;5.88;3.10;;;30.40;82.30;;;;;;5014229;28;20121;-67
2021/07/07 07:31:56;;;;;;;7.97;2.85;;;31.70;82.40;;;;;;5031129;28;20033;-67
2021/07/07 07:35:00;;;;;;;9.27;2.55;;;31.60;80.70;;;;;;5014437;28;20049;-68
2021/07/07 07:38:09;;;;;;;9.70;2.92;;;32.20;81.10;;;;;;5024054;28;20064;-67
2021/07/07 07:41:14;;;;;;;5.45;2.58;;;30.30;82.70;;;;;;5029241;28;20045;-68
2021/07/07 07:44:19;;;;;;;13.98;3.63;;;31.00;82.50;;;;;;5027903;28;20056;-68
2021/07/07 07:47:24;;;;;;;7.57;2.63;;;32.20;79.20;;;;;;5023872;28;20523;-67
2021/07/07 07:50:29;;;;;;;9.50;2.78;;;32.20;80.70;;;;;;5031592;28;20368;-68
2021/07/07 07:53:32;;;;;;;11.57;2.67;;;33.00;80.80;;;;;;5032910;28;20056;-68
2021/07/07 07:56:36;;;;;;;7.20;2.50;;;33.80;79.40;;;;;;5014073;28;20404;-68
2021/07/07 07:59:41;;;;;;;9.90;3.13;;;35.10;75.90;;;;;;5013766;28;20041;-69
2021/07/07 08:02:46;;;;;;;8.35;2.72;;;35.90;74.00;;;;;;5025494;28;20065;-68
2021/07/07 08:05:50;;;;;;;6.50;2.78;;;36.90;73.70;;;;;;5013960;28;20040;-67
2021/07/07 08:08:54;;;;;;;9.02;2.55;;;34.20;75.60;;;;;;5013682;28;20041;-68
2021/07/07 08:11:58;;;;;;;9.63;2.80;;;35.40;74.70;;;;;;5014109;28;20045;-67
2021/07/07 08:15:04;;;;;;;9.00;2.42;;;36.50;72.70;;;;;;5016062;28;20041;-67
2021/07/07 08:18:10;;;;;;;9.70;1.90;;;36.60;71.70;;;;;;5018577;28;20056;-67
2021/07/07 08:21:14;;;;;;;6.80;2.42;;;34.40;73.00;;;;;;5012182;28;20415;-68
2021/07/07 08:24:18;;;;;;;8.10;1.88;;;35.30;73.50;;;;;;5013865;28;20538;-68
2021/07/07 08:27:22;;;;;;;6.78;2.60;;;36.00;72.10;;;;;;5013607;28;20672;-68
2021/07/07 08:30:27;;;;;;;9.27;2.08;;;37.80;70.00;;;;;;5018325;28;20074;-67
2021/07/07 08:33:31;;;;;;;7.57;1.90;;;37.80;68.30;;;;;;5026398;28;20048;-69
2021/07/07 08:36:35;;;;;;;3.13;1.83;;;39.10;66.50;;;;;;5023907;28;20574;-68
2021/07/07 08:39:40;;;;;;;5.53;1.50;;;39.90;65.80;;;;;;5024230;28;20215;-68
2021/07/07 08:42:46;;;;;;;6.50;2.05;;;39.90;64.70;;;;;;5011972;28;20381;-68
2021/07/07 08:45:53;;;;;;;7.30;1.30;;;39.80;65.30;;;;;;5025425;28;20053;-68
2021/07/07 08:48:58;;;;;;;2.92;0.90;;;37.70;62.70;;;;;;5014314;28;20058;-67
2021/07/07 08:52:03;;;;;;;1.35;0.75;;;38.30;61.40;;;;;;5028843;28;20056;-68
2021/07/07 08:55:13;;;;;;;6.78;1.00;;;40.60;58.40;;;;;;5020811;28;20495;-68
2021/07/07 08:58:17;;;;;;;8.95;1.23;;;40.10;59.90;;;;;;5026501;28;20045;-69
2021/07/07 09:01:21;;;;;;;4.07;1.05;;;41.00;58.00;;;;;;5018931;28;20044;-69
2021/07/07 09:04:46;;;;;;;1.35;0.80;;;40.20;59.40;;;;;;5030177;28;20044;-68
2021/07/07 09:07:51;;;;;;;3.13;1.00;;;41.50;57.30;;;;;;5029130;28;20095;-68
2021/07/07 09:11:13;;;;;;;2.72;1.02;;;37.40;59.00;;;;;;5029796;28;20037;-69
2021/07/07 09:14:17;;;;;;;3.60;1.00;;;38.30;61.00;;;;;;5026470;28;20050;-68
2021/07/07 09:17:21;;;;;;;2.72;1.10;;;37.90;59.90;;;;;;5031415;28;20549;-68
2021/07/07 09:20:34;;;;;;;3.80;1.15;;;40.70;59.60;;;;;;5028162;28;20044;-68
2021/07/07 09:23:40;;;;;;;4.10;0.85;;;41.30;57.60;;;;;;5021572;28;20052;-68
2021/07/07 09:27:06;;;;;;;2.33;1.02;;;40.90;57.20;;;;;;5010621;28;20045;-69
2021/07/07 09:30:12;;;;;;;5.15;1.02;;;42.20;55.90;;;;;;5020296;28;20061;-69
2021/07/07 09:33:16;;;;;;;3.35;0.70;;;41.60;56.70;;;;;;5030042;28;20040;-69
2021/07/07 09:36:23;;;;;;;1.77;0.90;;;42.50;55.40;;;;;;5029868;28;20412;-68
2021/07/07 09:39:30;;;;;;;2.92;1.02;;;43.20;55.40;;;;;;5030763;28;20045;-68
2021/07/07 09:42:37;;;;;;;2.92;0.85;;;44.20;54.40;;;;;;5029694;28;20045;-68
2021/07/07 09:45:45;;;;;;;4.45;1.10;;;39.50;55.60;;;;;;5012955;28;20093;-67
2021/07/07 09:48:52;;;;;;;3.50;0.90;;;36.50;59.30;;;;;;5028372;28;20403;-68
2021/07/07 09:51:56;;;;;;;5.15;1.00;;;36.40;62.70;;;;;;5027616;28;20508;-67
2021/07/07 09:55:08;;;;;;;2.08;1.13;;;36.70;61.10;;;;;;5029156;28;20136;-68
2021/07/07 09:58:14;;;;;;;6.15;1.17;;;40.30;58.30;;;;;;5031196;28;20048;-67
2021/07/07 10:01:18;;;;;;;3.03;1.25;;;41.00;56.60;;;;;;5009406;28;20049;-68
2021/07/07 10:04:32;;;;;;;5.05;1.38;;;41.60;56.80;;;;;;5029343;28;20061;-67
2021/07/07 10:07:36;;;;;;;4.18;1.17;;;41.30;57.30;;;;;;5028546;28;20499;-67
2021/07/07 10:10:41;;;;;;;7.32;1.25;;;39.90;56.60;;;;;;5028249;28;20037;-67
2021/07/07 10:13:46;;;;;;;3.53;1.00;;;39.90;58.00;;;;;;5018794;28;20053;-69
2021/07/07 10:16:51;;;;;;;5.60;1.33;;;43.00;55.90;;;;;;5029528;28;20041;-68
2021/07/07 10:19:57;;;;;;;1.98;1.02;;;43.10;55.40;;;;;;5025350;28;20057;-69
2021/07/07 10:23:04;;;;;;;2.30;1.10;;;42.30;55.00;;;;;;5010017;28;20045;-68
2021/07/07 10:26:10;;;;;;;2.90;1.27;;;40.00;57.10;;;;;;5032231;28;20036;-68
2021/07/07 10:29:15;;;;;;;3.35;1.10;;;41.20;57.00;;;;;;5033007;28;20060;-68
2021/07/07 10:32:21;;;;;;;2.58;0.95;;;41.90;56.20;;;;;;5030716;28;20052;-68
2021/07/07 10:35:26;;;;;;;5.80;1.13;;;42.70;56.30;;;;;;5029485;28;20412;-68
2021/07/07 10:38:33;;;;;;;2.78;1.00;;;42.30;55.70;;;;;;5027853;28;20044;-67
2021/07/07 10:41:45;;;;;;;5.35;0.90;;;42.80;56.40;;;;;;5028640;28;20902;-68
2021/07/07 10:44:50;;;;;;;2.30;1.15;;;40.60;56.40;;;;;;5031584;28;20044;-68
2021/07/07 10:47:54;;;;;;;4.82;1.25;;;40.90;56.40;;;;;;5031133;28;20041;-68
2021/07/07 10:51:12;;;;;;;2.88;1.48;;;39.90;57.20;;;;;;5032468;28;20495;-69
2021/07/07 10:54:20;;;;;;;2.88;1.25;;;40.20;57.30;;;;;;5033017;28;20048;-68
2021/07/07 10:57:26;;;;;;;7.10;1.10;;;39.00;57.40;;;;;;5031485;28;20037;-68
2021/07/07 11:00:35;;;;;;;4.85;1.00;;;41.90;56.30;;;;;;5019016;28;20423;-68
2021/07/07 11:04:02;;;;;;;2.60;0.95;;;41.60;55.20;;;;;;5026056;28;20037;-69
2021/07/07 11:07:31;;;;;;;4.22;1.00;;;42.70;54.80;;;;;;5031841;28;20126;-68
2021/07/07 11:10:55;;;;;;;4.05;1.08;;;41.80;55.50;;;;;;5022664;28;20037;-68
2021/07/07 11:14:13;;;;;;;4.30;0.90;;;42.00;55.60;;;;;;5015443;28;20049;-69
2021/07/07 11:17:19;;;;;;;5.13;1.13;;;42.60;55.10;;;;;;5022418;28;20036;-69
2021/07/07 11:20:32;;;;;;;3.17;1.20;;;40.80;56.50;;;;;;5022967;28;20045;-68
2021/07/07 11:23:38;;;;;;;2.00;1.08;;;41.30;56.00;;;;;;5017292;28;20400;-68
2021/07/07 11:26:43;;;;;;;8.65;1.10;;;41.90;54.90;;;;;;5015286;28;20052;-68
2021/07/07 11:29:48;;;;;;;2.05;1.00;;;41.70;55.60;;;;;;5017600;28;20439;-68
2021/07/07 11:32:54;;;;;;;5.50;1.00;;;41.30;54.60;;;;;;5021601;28;20033;-69
2021/07/07 11:35:59;;;;;;;2.97;1.25;;;41.30;55.60;;;;;;5011143;28;20041;-68
2021/07/07 11:39:07;;;;;;;0.90;0.85;;;39.10;57.60;;;;;;5010626;28;20515;-68
2021/07/07 11:42:13;;;;;;;9.73;1.48;;;39.60;57.40;;;;;;5014689;28;20041;-68
2021/07/07 11:45:20;;;;;;;6.70;1.40;;;38.50;58.40;;;;;;5012003;28;20519;-68
2021/07/07 11:48:37;;;;;;;2.97;1.30;;;39.40;57.50;;;;;;5013412;28;20037;-67
2021/07/07 11:51:42;;;;;;;2.42;1.10;;;39.10;57.20;;;;;;5010685;28;20061;-68
2021/07/07 11:54:47;;;;;;;2.05;0.90;;;39.20;57.90;;;;;;5014560;28;20041;-68
2021/07/07 11:57:51;;;;;;;2.47;1.38;;;40.30;56.30;;;;;;5016410;28;20551;-67
2021/07/07 12:00:57;;;;;;;11.18;1.70;;;38.70;58.20;;;;;;5013043;28;20053;-67
2021/07/07 12:04:02;;;;;;;2.45;1.27;;;38.60;57.70;;;;;;5010268;28;20439;-68
2021/07/07 12:07:07;;;;;;;2.38;1.15;;;40.30;57.20;;;;;;5009579;28;20052;-68
2021/07/07 12:10:27;;;;;;;1.40;1.00;;;39.60;57.90;;;;;;5012909;28;20033;-67
2021/07/07 12:13:32;;;;;;;3.58;1.40;;;40.20;56.70;;;;;;5013220;28;20060;-68
2021/07/07 12:16:37;;;;;;;3.05;1.30;;;40.00;56.40;;;;;;5011007;28;20029;-67
2021/07/07 12:19:41;;;;;;;8.35;1.58;;;40.50;56.30;;;;;;5009746;28;20045;-67
2021/07/07 12:23:01;;;;;;;4.70;1.30;;;40.90;55.90;;;;;;5012163;28;20052;-68
2021/07/07 12:26:06;;;;;;;1.45;1.23;;;39.40;56.90;;;;;;5012144;28;20033;-67
2021/07/07 12:29:24;;;;;;;2.70;1.80;;;39.00;57.90;;;;;;5010844;28;20052;-67
2021/07/07 12:32:28;;;;;;;5.65;1.45;;;38.90;57.50;;;;;;5010901;28;20041;-67
2021/07/07 12:35:33;;;;;;;4.15;1.30;;;36.60;59.20;;;;;;5014908;28;20116;-67
2021/07/07 12:38:47;;;;;;;3.08;1.30;;;37.70;58.50;;;;;;5027306;28;20041;-67
2021/07/07 12:42:03;;;;;;;6.50;2.28;;;39.40;57.60;;;;;;5018645;28;20532;-68
2021/07/07 12:45:13;;;;;;;9.05;1.50;;;37.20;59.30;;;;;;5017005;28;20040;-65
2021/07/07 12:48:18;;;;;;;3.97;1.80;;;35.80;60.00;;;;;;5021298;28;20090;-67
2021/07/07 12:51:29;;;;;;;4.15;1.70;;;35.10;62.10;;;;;;5018972;28;20056;-68
2021/07/07 12:54:34;;;;;;;2.85;1.40;;;36.00;60.50;;;;;;5017134;28;20058;-67
2021/07/07 12:57:41;;;;;;;2.90;1.77;;;36.60;60.40;;;;;;5018499;28;20040;-68
2021/07/07 13:00:46;;;;;;;2.75;1.63;;;37.10;59.40;;;;;;5017398;28;20041;-67
2021/07/07 13:03:50;;;;;;;5.30;1.92;;;37.30;59.70;;;;;;5012809;28;20051;-67
2021/07/07 13:07:05;;;;;;;2.22;1.50;;;37.00;59.20;;;;;;5009257;28;20392;-68
2021/07/07 13:10:10;;;;;;;6.03;2.20;;;37.30;59.40;;;;;;5009978;28;20041;-67
2021/07/07 13:13:40;;;;;;;6.75;2.05;;;36.40;60.70;;;;;;5010819;28;20040;-67
2021/07/07 13:16:52;;;;;;;6.68;1.80;;;35.60;62.40;;;;;;5008778;28;20042;-69
2021/07/07 13:20:00;;;;;;;2.60;1.40;;;36.60;61.40;;;;;;5023690;28;20041;-67
2021/07/07 13:23:05;;;;;;;4.18;1.77;;;35.70;62.10;;;;;;5012322;28;20045;-68
2021/07/07 13:26:27;;;;;;;2.45;1.52;;;36.50;60.60;;;;;;5013949;28;20048;-68
2021/07/07 13:29:34;;;;;;;4.70;1.60;;;37.70;60.00;;;;;;5014728;28;20041;-68
2021/07/07 13:32:47;;;;;;;3.63;1.75;;;37.80;59.20;;;;;;5008945;28;20037;-68
2021/07/07 13:35:51;;;;;;;8.93;1.80;;;38.30;58.20;;;;;;5009411;28;20041;-67
2021/07/07 13:39:05;;;;;;;4.35;1.65;;;38.30;59.50;;;;;;5012461;28;20052;-68
2021/07/07 13:42:11;;;;;;;3.28;1.90;;;36.50;59.20;;;;;;5008658;28;20041;-69
2021/07/07 13:45:17;;;;;;;2.13;1.80;;;36.80;60.00;;;;;;5009980;28;20535;-68
2021/07/07 13:48:22;;;;;;;6.97;1.90;;;36.30;60.60;;;;;;5011862;28;20057;-68
2021/07/07 13:51:27;;;;;;;6.03;2.00;;;37.30;59.70;;;;;;5009396;28;20037;-67
2021/07/07 13:54:32;;;;;;;3.83;1.80;;;36.50;60.10;;;;;;5010187;28;20037;-68
2021/07/07 13:57:37;;;;;;;2.38;2.17;;;36.00;59.90;;;;;;5009713;28;20057;-68
2021/07/07 14:00:41;;;;;;;7.18;2.30;;;36.40;60.40;;;;;;5011162;28;20037;-66
2021/07/07 14:03:45;;;;;;;3.20;2.15;;;36.50;61.10;;;;;;5010395;28;20041;-66
2021/07/07 14:06:50;;;;;;;6.15;2.83;;;36.10;61.00;;;;;;5008412;28;20052;-65
2021/07/07 14:09:55;;;;;;;6.28;2.35;;;36.00;59.30;;;;;;5013276;28;20480;-66
2021/07/07 14:13:00;;;;;;;3.38;2.00;;;35.50;61.00;;;;;;5012889;28;20037;-67
2021/07/07 14:16:04;;;;;;;6.22;2.58;;;35.40;61.20;;;;;;5018929;28;20304;-68
2021/07/07 14:19:10;;;;;;;5.68;2.22;;;35.80;60.30;;;;;;5018297;28;20383;-67
2021/07/07 14:22:15;;;;;;;8.02;2.28;;;35.60;60.20;;;;;;5024097;28;20494;-67
2021/07/07 14:25:19;;;;;;;4.57;2.35;;;35.10;62.40;;;;;;5021394;28;20053;-67
2021/07/07 14:28:24;;;;;;;8.45;2.47;;;35.00;61.50;;;;;;5020695;28;20040;-66
2021/07/07 14:31:29;;;;;;;8.60;2.28;;;35.10;63.10;;;;;;5019573;28;20523;-66
2021/07/07 14:34:34;;;;;;;5.28;2.58;;;34.90;62.10;;;;;;5018730;28;20101;-67
2021/07/07 14:37:37;;;;;;;5.18;2.60;;;35.10;63.30;;;;;;5032514;28;20044;-66
2021/07/07 14:40:41;;;;;;;5.95;2.40;;;34.90;63.40;;;;;;5021472;28;20037;-68
2021/07/07 14:43:46;;;;;;;3.70;2.25;;;35.10;63.00;;;;;;5020882;28;20037;-68
2021/07/07 14:46:54;;;;;;;4.45;2.40;;;35.20;62.00;;;;;;5020687;28;20404;-68
2021/07/07 14:49:58;;;;;;;3.88;2.15;;;35.60;62.50;;;;;;5019380;28;20045;-67
2021/07/07 14:53:02;;;;;;;6.32;2.55;;;35.30;62.60;;;;;;5031673;28;20040;-67
2021/07/07 14:56:07;;;;;;;4.63;2.00;;;35.60;62.20;;;;;;5020679;28;20418;-68
2021/07/07 14:59:11;;;;;;;10.05;2.83;;;35.80;62.50;;;;;;5024891;28;20048;-67
2021/07/07 15:02:16;;;;;;;7.07;2.15;;;35.60;62.90;;;;;;5021889;28;20419;-68
2021/07/07 15:05:20;;;;;;;5.53;2.30;;;35.40;64.20;;;;;;5022109;28;20392;-68
2021/07/07 15:08:24;;;;;;;4.60;2.47;;;35.10;62.40;;;;;;5026463;28;20036;-68
2021/07/07 15:11:29;;;;;;;4.05;2.38;;;34.80;64.10;;;;;;5019712;28;20045;-69
2021/07/07 15:14:33;;;;;;;5.03;2.60;;;35.20;63.20;;;;;;5027170;28;20753;-69
2021/07/07 15:17:37;;;;;;;5.22;2.15;;;35.00;63.40;;;;;;5044651;28;20511;-68
2021/07/07 15:20:42;;;;;;;9.15;2.60;;;35.30;63.50;;;;;;5033366;28;20409;-69
2021/07/07 15:23:47;;;;;;;7.15;2.33;;;35.50;63.40;;;;;;5033100;28;20049;-69
2021/07/07 15:26:52;;;;;;;4.50;2.13;;;35.70;62.40;;;;;;5032027;28;20048;-68
2021/07/07 15:29:56;;;;;;;4.20;2.03;;;35.80;61.80;;;;;;5032334;28;20044;-68
2021/07/07 15:33:02;;;;;;;5.50;2.50;;;35.60;62.60;;;;;;5033095;28;20045;-68
2021/07/07 15:36:06;;;;;;;5.32;2.05;;;35.30;62.90;;;;;;5032573;28;20068;-68
2021/07/07 15:39:10;;;;;;;4.38;2.25;;;34.90;64.40;;;;;;5033100;28;20065;-69
2021/07/07 15:42:18;;;;;;;8.35;2.15;;;35.00;64.20;;;;;;5032264;28;20048;-67
2021/07/07 15:45:24;;;;;;;8.32;2.38;;;35.10;63.90;;;;;;5032860;28;20060;-67
2021/07/07 15:48:28;;;;;;;8.75;2.42;;;35.20;63.60;;;;;;5032572;28;20041;-68
2021/07/07 15:51:33;;;;;;;5.03;2.20;;;34.90;64.70;;;;;;5032214;28;20044;-69
2021/07/07 15:54:37;;;;;;;4.10;1.90;;;34.90;63.70;;;;;;5032631;28;20387;-68
2021/07/07 15:57:42;;;;;;;7.40;2.03;;;34.80;63.40;;;;;;5032620;28;20116;-69
2021/07/07 16:00:46;;;;;;;5.00;2.22;;;34.80;64.40;;;;;;5032022;28;20050;-68
2021/07/07 16:03:50;;;;;;;5.35;2.40;;;34.90;64.90;;;;;;5032542;28;20048;-69
2021/07/07 16:06:55;;;;;;;7.65;2.40;;;34.80;64.60;;;;;;5020000;28;20048;-69